Time;durP1;ratioP1;P1;durP2;ratioP2;P2;SDS_P1;SDS_P2;PMS_P1;PMS_P2;Temp;Humidity;BMP_temperature;BMP_pressure;BME280_temperature;BME280_humidity;BME280_pressure;Samples;Min_cycle;Max_cycle;Signal;HPM_P1;HPM_P2
2021/05/21 00:00:24;;;;;;;3.33;1.37;;;11.70;99.90;;;;;;5034638;28;20174;-78
2021/05/21 00:02:49;;;;;;;1.30;1.20;;;11.70;99.90;;;;;;5033491;28;20232;-78
2021/05/21 00:05:15;;;;;;;1.53;1.43;;;11.70;99.90;;;;;;5033357;28;20181;-77
2021/05/21 00:07:41;;;;;;;2.37;1.40;;;11.70;99.90;;;;;;5016140;28;20235;-77
2021/05/21 00:10:07;;;;;;;1.17;1.07;;;11.70;99.90;;;;;;5034151;28;20613;-80
2021/05/21 00:12:32;;;;;;;1.27;1.17;;;11.60;99.90;;;;;;5034102;28;20257;-78
2021/05/21 00:14:58;;;;;;;1.73;1.13;;;11.70;99.90;;;;;;5033321;28;20516;-77
2021/05/21 00:17:23;;;;;;;1.30;1.23;;;11.60;99.90;;;;;;5014650;28;20206;-77
2021/05/21 00:19:49;;;;;;;1.77;1.20;;;11.60;99.90;;;;;;5031578;28;20192;-78
2021/05/21 00:22:14;;;;;;;1.33;1.23;;;11.60;99.90;;;;;;5031742;28;20206;-78
2021/05/21 00:24:40;;;;;;;1.50;1.40;;;11.60;99.90;;;;;;5029754;28;20186;-77
2021/05/21 00:27:06;;;;;;;1.63;1.10;;;11.60;99.90;;;;;;5030428;28;20288;-77
2021/05/21 00:29:31;;;;;;;1.47;1.23;;;11.60;99.90;;;;;;5033149;28;20182;-79
2021/05/21 00:31:57;;;;;;;3.43;1.20;;;11.60;99.90;;;;;;5031899;28;20225;-77
2021/05/21 00:34:22;;;;;;;1.30;1.20;;;11.70;99.90;;;;;;5015601;28;20506;-77
2021/05/21 00:36:48;;;;;;;1.50;1.10;;;11.70;99.90;;;;;;5029418;28;20210;-78
2021/05/21 00:39:13;;;;;;;1.47;1.13;;;11.60;99.90;;;;;;5033326;28;20204;-77
2021/05/21 00:41:39;;;;;;;1.10;1.10;;;11.60;99.90;;;;;;5026387;28;20765;-77
2021/05/21 00:44:04;;;;;;;1.90;1.60;;;11.60;99.90;;;;;;5031192;28;20213;-78
2021/05/21 00:46:30;;;;;;;2.83;1.23;;;11.60;99.90;;;;;;5031392;28;20292;-77
2021/05/21 00:48:55;;;;;;;1.10;1.00;;;11.50;99.90;;;;;;5012331;28;20273;-78
2021/05/21 00:51:21;;;;;;;1.27;1.10;;;11.50;99.90;;;;;;5029105;28;20196;-78
2021/05/21 00:53:48;;;;;;;1.57;1.07;;;11.50;99.90;;;;;;5030818;28;20189;-79
2021/05/21 00:56:13;;;;;;;1.53;1.17;;;11.50;99.90;;;;;;5015053;28;20679;-78
2021/05/21 00:58:39;;;;;;;2.20;1.17;;;11.50;99.90;;;;;;5030149;28;20456;-78
2021/05/21 01:01:05;;;;;;;2.63;1.27;;;11.60;99.90;;;;;;5019388;28;20223;-77
2021/05/21 01:03:31;;;;;;;1.73;1.20;;;11.60;99.90;;;;;;5013850;28;20561;-77
2021/05/21 01:05:56;;;;;;;0.97;0.97;;;11.50;99.90;;;;;;5033127;28;20198;-77
2021/05/21 01:08:22;;;;;;;2.97;1.13;;;11.50;99.90;;;;;;5033301;28;20181;-78
2021/05/21 01:10:48;;;;;;;1.37;1.27;;;11.50;99.90;;;;;;5029354;28;20250;-78
2021/05/21 01:13:14;;;;;;;2.30;1.30;;;11.50;99.90;;;;;;5031178;28;20639;-79
2021/05/21 01:15:42;;;;;;;2.97;1.53;;;11.50;99.90;;;;;;5014068;28;20201;-78
2021/05/21 01:18:10;;;;;;;2.87;1.37;;;11.60;99.90;;;;;;5015218;28;20447;-77
2021/05/21 01:20:36;;;;;;;0.93;0.93;;;11.60;99.90;;;;;;5028267;28;20825;-78
2021/05/21 01:23:04;;;;;;;3.00;1.20;;;11.60;99.90;;;;;;5032986;28;20559;-77
2021/05/21 01:25:31;;;;;;;1.43;1.13;;;11.70;99.90;;;;;;5012708;28;20552;-78
2021/05/21 01:27:57;;;;;;;1.63;1.53;;;11.60;99.90;;;;;;5020868;28;20479;-78
2021/05/21 01:30:24;;;;;;;2.80;1.57;;;11.60;99.90;;;;;;5019761;28;20428;-80
2021/05/21 01:32:49;;;;;;;0.80;0.80;;;11.60;99.90;;;;;;5028667;28;20924;-77
2021/05/21 01:35:17;;;;;;;0.90;0.90;;;11.70;99.90;;;;;;5030590;28;20468;-77
2021/05/21 01:37:44;;;;;;;5.43;1.13;;;11.70;99.90;;;;;;5030082;28;20877;-77
2021/05/21 01:40:12;;;;;;;2.70;0.90;;;11.70;99.90;;;;;;5029169;28;20440;-78
2021/05/21 01:42:39;;;;;;;1.43;0.90;;;11.60;99.90;;;;;;5008978;28;20504;-78
2021/05/21 01:45:06;;;;;;;1.10;1.00;;;11.60;99.90;;;;;;5015027;28;20416;-77
2021/05/21 01:47:31;;;;;;;1.17;1.17;;;11.70;99.90;;;;;;5012258;28;20450;-78
2021/05/21 01:49:57;;;;;;;2.93;1.10;;;11.60;99.90;;;;;;5028370;28;20416;-77
2021/05/21 01:52:23;;;;;;;1.57;0.90;;;11.60;99.90;;;;;;5030674;28;20182;-78
2021/05/21 01:54:49;;;;;;;1.10;1.10;;;11.60;99.90;;;;;;5027787;28;20269;-77
2021/05/21 01:57:14;;;;;;;1.50;1.20;;;11.60;99.90;;;;;;5031838;28;20229;-78
2021/05/21 01:59:40;;;;;;;2.67;1.20;;;11.60;99.90;;;;;;5030744;28;20271;-78
2021/05/21 02:02:09;;;;;;;1.00;1.00;;;11.60;99.90;;;;;;5032253;28;20205;-78
2021/05/21 02:04:42;;;;;;;1.07;1.00;;;11.70;99.90;;;;;;5027472;28;20177;-78
2021/05/21 02:07:15;;;;;;;1.03;0.93;;;11.60;99.90;;;;;;5031451;28;20984;-80
2021/05/21 02:09:54;;;;;;;1.13;0.90;;;11.70;99.90;;;;;;5030396;28;20800;-77
2021/05/21 02:12:22;;;;;;;1.00;0.90;;;11.60;99.90;;;;;;5032014;28;20432;-77
2021/05/21 02:14:47;;;;;;;1.70;1.50;;;11.60;99.90;;;;;;5031723;28;21001;-78
2021/05/21 02:17:13;;;;;;;1.17;0.87;;;11.60;99.90;;;;;;5028496;28;20550;-77
2021/05/21 02:19:38;;;;;;;1.83;1.30;;;11.60;99.90;;;;;;5029581;28;20194;-77
2021/05/21 02:22:06;;;;;;;1.23;1.00;;;11.50;99.90;;;;;;5029663;28;20189;-80
2021/05/21 02:24:32;;;;;;;0.87;0.87;;;11.60;99.90;;;;;;5031755;28;20208;-77
2021/05/21 02:26:57;;;;;;;2.70;1.30;;;11.60;99.90;;;;;;5030688;28;20488;-77
2021/05/21 02:29:23;;;;;;;1.00;1.00;;;11.60;99.90;;;;;;5029594;28;20223;-78
2021/05/21 02:31:48;;;;;;;1.10;1.00;;;11.60;99.90;;;;;;5012499;28;20181;-77
2021/05/21 02:34:14;;;;;;;1.17;1.07;;;11.50;99.90;;;;;;5029370;28;20193;-77
2021/05/21 02:36:39;;;;;;;1.27;0.90;;;11.50;99.90;;;;;;5031379;28;20231;-78
2021/05/21 02:39:05;;;;;;;1.00;1.00;;;11.50;99.90;;;;;;5027907;28;20189;-77
2021/05/21 02:41:31;;;;;;;1.00;0.90;;;11.40;99.90;;;;;;5022547;28;20182;-77
2021/05/21 02:43:56;;;;;;;0.90;0.80;;;11.40;99.90;;;;;;5012209;28;20467;-77
2021/05/21 02:46:22;;;;;;;1.23;1.00;;;11.40;99.90;;;;;;5030988;28;20220;-77
2021/05/21 02:48:47;;;;;;;1.67;1.30;;;11.40;99.90;;;;;;5028748;28;20189;-77
2021/05/21 02:51:13;;;;;;;4.83;1.40;;;11.40;99.90;;;;;;5027770;28;20301;-77
2021/05/21 02:53:38;;;;;;;1.37;0.90;;;11.50;99.90;;;;;;5031200;28;20566;-78
2021/05/21 02:56:04;;;;;;;1.50;0.90;;;11.40;99.90;;;;;;5028985;28;20212;-77
2021/05/21 02:58:30;;;;;;;2.87;1.10;;;11.40;99.90;;;;;;5013415;28;20186;-77
2021/05/21 03:00:55;;;;;;;2.50;1.30;;;11.40;99.90;;;;;;5026545;28;20189;-75
2021/05/21 03:03:21;;;;;;;1.07;0.97;;;11.40;99.90;;;;;;5030945;28;20238;-78
2021/05/21 03:05:46;;;;;;;2.30;1.03;;;11.30;99.90;;;;;;5031105;28;20222;-77
2021/05/21 03:08:12;;;;;;;2.23;1.50;;;11.30;99.90;;;;;;5034991;28;20544;-78
2021/05/21 03:10:38;;;;;;;0.90;0.90;;;11.40;99.90;;;;;;5033310;28;20173;-78
2021/05/21 03:13:04;;;;;;;0.87;0.87;;;11.30;99.90;;;;;;5032788;28;20194;-78
2021/05/21 03:15:30;;;;;;;0.80;0.80;;;11.30;99.90;;;;;;5035073;28;20174;-79
2021/05/21 03:17:55;;;;;;;1.13;1.03;;;11.20;99.90;;;;;;5032801;28;20206;-79
2021/05/21 03:20:21;;;;;;;1.00;1.00;;;11.30;99.90;;;;;;5032640;28;20439;-78
2021/05/21 03:22:47;;;;;;;2.87;0.90;;;11.30;99.90;;;;;;5032221;28;20248;-77
2021/05/21 03:25:13;;;;;;;0.70;0.70;;;11.30;99.90;;;;;;5034722;28;20192;-78
2021/05/21 03:27:39;;;;;;;5.27;1.00;;;11.30;99.90;;;;;;5016495;28;20521;-78
2021/05/21 03:30:07;;;;;;;1.80;0.90;;;11.20;99.90;;;;;;5034685;28;20502;-79
2021/05/21 03:32:33;;;;;;;1.03;1.03;;;11.20;99.90;;;;;;5034581;28;20337;-78
2021/05/21 03:34:58;;;;;;;1.57;1.10;;;11.20;99.90;;;;;;5029335;28;20534;-77
2021/05/21 03:37:24;;;;;;;1.73;1.10;;;11.20;99.90;;;;;;5035796;28;20574;-78
2021/05/21 03:39:50;;;;;;;3.03;1.00;;;11.20;99.90;;;;;;5033562;28;20189;-78
2021/05/21 03:42:16;;;;;;;0.80;0.80;;;11.10;99.90;;;;;;5029018;28;20209;-78
2021/05/21 03:44:41;;;;;;;0.90;0.90;;;11.10;99.90;;;;;;5032161;28;20184;-76
2021/05/21 03:47:07;;;;;;;1.33;1.10;;;11.10;99.90;;;;;;5033468;28;20472;-77
2021/05/21 03:49:33;;;;;;;2.00;1.00;;;11.10;99.90;;;;;;5030926;28;20185;-77
2021/05/21 03:51:59;;;;;;;1.17;1.07;;;11.10;99.90;;;;;;5033849;28;20267;-78
2021/05/21 03:54:24;;;;;;;2.10;1.10;;;11.10;99.90;;;;;;5015728;28;20435;-77
2021/05/21 03:56:51;;;;;;;1.00;1.00;;;11.10;99.90;;;;;;5030162;28;20204;-80
2021/05/21 03:59:17;;;;;;;0.97;0.87;;;11.00;99.90;;;;;;5034094;28;20193;-79
2021/05/21 04:01:43;;;;;;;1.70;1.60;;;11.10;99.90;;;;;;5015192;28;20448;-77
2021/05/21 04:04:09;;;;;;;0.90;0.70;;;11.10;99.90;;;;;;5031984;28;20550;-76
2021/05/21 04:06:35;;;;;;;0.90;0.90;;;11.10;99.90;;;;;;5032038;28;20554;-78
2021/05/21 04:09:06;;;;;;;0.70;0.70;;;11.10;99.90;;;;;;5032123;28;20185;-77
2021/05/21 04:11:32;;;;;;;0.80;0.80;;;11.20;99.90;;;;;;5015354;28;20602;-77
2021/05/21 04:13:57;;;;;;;1.03;0.93;;;11.30;99.90;;;;;;5033384;28;20498;-76
2021/05/21 04:16:23;;;;;;;3.87;1.27;;;11.30;99.90;;;;;;5033123;28;20953;-76
2021/05/21 04:18:48;;;;;;;1.93;0.90;;;11.40;99.90;;;;;;5027689;28;20723;-76
2021/05/21 04:21:15;;;;;;;1.00;0.80;;;11.40;99.90;;;;;;5031271;28;20541;-76
2021/05/21 04:23:41;;;;;;;4.53;0.80;;;11.50;99.90;;;;;;5031348;28;20288;-76
2021/05/21 04:26:07;;;;;;;1.10;1.00;;;11.60;99.90;;;;;;5033190;28;21024;-75
2021/05/21 04:28:32;;;;;;;1.20;0.80;;;11.60;99.90;;;;;;5031094;28;20194;-76
2021/05/21 04:30:58;;;;;;;0.83;0.80;;;11.60;99.90;;;;;;5015053;28;20311;-75
2021/05/21 04:33:23;;;;;;;0.80;0.80;;;11.70;99.90;;;;;;5033094;28;20221;-76
2021/05/21 04:35:49;;;;;;;1.37;0.83;;;11.80;99.90;;;;;;5031153;28;20229;-76
2021/05/21 04:38:14;;;;;;;0.87;0.77;;;11.80;99.90;;;;;;5031471;28;20182;-78
2021/05/21 04:40:40;;;;;;;5.30;0.80;;;11.90;99.90;;;;;;5029868;28;20706;-76
2021/05/21 04:43:05;;;;;;;1.03;0.77;;;12.00;99.90;;;;;;5014841;28;20546;-76
2021/05/21 04:45:31;;;;;;;1.20;0.83;;;12.10;99.90;;;;;;5031794;28;20174;-78
2021/05/21 04:47:56;;;;;;;1.90;0.90;;;12.10;99.90;;;;;;5015306;28;20183;-76
2021/05/21 04:50:22;;;;;;;2.50;0.70;;;12.20;99.90;;;;;;5028675;28;20323;-75
2021/05/21 04:52:49;;;;;;;1.53;0.90;;;12.30;99.90;;;;;;5013608;28;20186;-77
2021/05/21 04:55:14;;;;;;;2.10;0.60;;;12.30;99.90;;;;;;5032973;28;20709;-76
2021/05/21 04:57:40;;;;;;;0.90;0.77;;;12.40;99.90;;;;;;5030724;28;20464;-76
2021/05/21 05:00:07;;;;;;;1.67;1.10;;;12.40;99.90;;;;;;5032511;28;20178;-77
2021/05/21 05:02:33;;;;;;;0.83;0.80;;;12.50;99.90;;;;;;5012937;28;20264;-74
2021/05/21 05:04:58;;;;;;;1.17;0.90;;;12.50;99.90;;;;;;5009132;28;20456;-74
2021/05/21 05:07:24;;;;;;;1.50;0.93;;;12.60;99.90;;;;;;5030556;28;20453;-74
2021/05/21 05:09:49;;;;;;;0.60;0.60;;;12.70;99.90;;;;;;5015035;28;20178;-74
2021/05/21 05:12:15;;;;;;;3.43;1.33;;;12.70;99.90;;;;;;5029724;28;20201;-74
2021/05/21 05:14:40;;;;;;;0.80;0.80;;;12.80;99.90;;;;;;5028083;28;20725;-74
2021/05/21 05:17:06;;;;;;;1.10;0.73;;;12.90;99.90;;;;;;5031913;28;20267;-74
2021/05/21 05:19:32;;;;;;;2.00;1.10;;;12.90;99.90;;;;;;5028377;28;20186;-74
2021/05/21 05:21:58;;;;;;;0.60;0.60;;;12.90;99.90;;;;;;5013056;28;20178;-74
2021/05/21 05:24:24;;;;;;;1.57;0.60;;;12.90;99.90;;;;;;5029893;28;20675;-74
2021/05/21 05:26:50;;;;;;;3.50;0.70;;;13.00;99.90;;;;;;5028420;28;20468;-74
2021/05/21 05:29:16;;;;;;;0.70;0.60;;;13.10;99.90;;;;;;5029987;28;20974;-74
2021/05/21 05:31:46;;;;;;;0.60;0.60;;;13.10;99.90;;;;;;5032126;28;20456;-74
2021/05/21 05:34:12;;;;;;;2.10;0.70;;;13.30;99.90;;;;;;5018412;28;20261;-75
2021/05/21 05:36:38;;;;;;;1.33;0.70;;;13.30;99.90;;;;;;5035019;28;20471;-74
2021/05/21 05:39:05;;;;;;;0.77;0.73;;;13.30;99.90;;;;;;5021407;28;20421;-74
2021/05/21 05:41:31;;;;;;;0.60;0.60;;;13.30;99.90;;;;;;5035558;28;20183;-74
2021/05/21 05:43:57;;;;;;;1.00;0.57;;;13.40;99.90;;;;;;5043148;28;20539;-74
2021/05/21 05:46:22;;;;;;;1.50;0.87;;;13.30;99.90;;;;;;5024857;28;20477;-74
2021/05/21 05:48:49;;;;;;;1.07;0.63;;;13.40;99.90;;;;;;5013689;28;20191;-74
2021/05/21 05:51:14;;;;;;;2.10;0.60;;;13.40;99.90;;;;;;5026934;28;20182;-74
2021/05/21 05:53:41;;;;;;;1.53;0.90;;;13.40;99.90;;;;;;5014079;28;20436;-75
2021/05/21 05:56:07;;;;;;;2.00;0.70;;;13.50;99.90;;;;;;5009192;28;20225;-74
2021/05/21 05:58:32;;;;;;;1.27;0.77;;;13.60;99.90;;;;;;5013522;28;20996;-74
2021/05/21 06:00:59;;;;;;;0.90;0.80;;;13.70;99.90;;;;;;5030553;28;20437;-75
2021/05/21 06:03:27;;;;;;;1.27;0.50;;;13.70;99.90;;;;;;5029238;28;20213;-75
2021/05/21 06:05:52;;;;;;;0.67;0.67;;;13.80;99.90;;;;;;5028137;28;20468;-76
2021/05/21 06:08:18;;;;;;;1.07;0.70;;;13.90;99.90;;;;;;5027496;28;21219;-75
2021/05/21 06:10:43;;;;;;;1.10;0.70;;;14.00;99.90;;;;;;5011998;28;20678;-75
2021/05/21 06:13:10;;;;;;;3.50;0.70;;;14.10;99.90;;;;;;5026630;28;20185;-76
2021/05/21 06:15:37;;;;;;;2.73;0.67;;;14.20;99.90;;;;;;5013663;28;20668;-75
2021/05/21 06:18:03;;;;;;;0.60;0.60;;;14.30;99.90;;;;;;5029071;28;20912;-76
2021/05/21 06:20:31;;;;;;;0.70;0.70;;;14.40;99.90;;;;;;5027497;28;20519;-75
2021/05/21 06:22:57;;;;;;;2.40;0.70;;;14.50;99.90;;;;;;5023875;28;20473;-76
2021/05/21 06:25:37;;;;;;;0.83;0.83;;;14.60;99.90;;;;;;5012736;28;20528;-76
2021/05/21 06:28:03;;;;;;;0.70;0.70;;;14.70;99.90;;;;;;5022943;28;20316;-76
2021/05/21 06:30:28;;;;;;;1.07;0.87;;;14.80;99.90;;;;;;5025685;28;20461;-76
2021/05/21 06:32:54;;;;;;;2.23;0.97;;;14.90;99.90;;;;;;5019434;28;20653;-76
2021/05/21 06:35:22;;;;;;;1.50;0.70;;;15.00;99.90;;;;;;5020680;28;20194;-74
2021/05/21 06:37:48;;;;;;;1.57;0.63;;;14.90;99.90;;;;;;5030866;28;20712;-76
2021/05/21 06:40:14;;;;;;;0.80;0.60;;;15.00;99.90;;;;;;5028225;28;20453;-74
2021/05/21 06:42:40;;;;;;;2.97;1.00;;;14.90;99.90;;;;;;5026786;28;20559;-74
2021/05/21 06:45:06;;;;;;;3.27;0.70;;;15.00;99.90;;;;;;5011229;28;21039;-74
2021/05/21 06:47:31;;;;;;;1.30;0.77;;;14.90;99.90;;;;;;5028138;28;20206;-74
2021/05/21 06:49:57;;;;;;;3.83;0.70;;;15.00;99.90;;;;;;5027203;28;20440;-75
2021/05/21 06:52:23;;;;;;;2.37;0.70;;;15.00;99.90;;;;;;5027779;28;20191;-74
2021/05/21 06:54:48;;;;;;;0.80;0.70;;;15.00;99.90;;;;;;5019490;28;20268;-74
2021/05/21 06:57:14;;;;;;;3.27;0.70;;;15.10;99.90;;;;;;5028218;28;20292;-74
2021/05/21 06:59:40;;;;;;;1.13;0.70;;;15.10;99.90;;;;;;5030272;28;20187;-74
2021/05/21 07:02:06;;;;;;;1.00;0.80;;;15.20;99.90;;;;;;5028721;28;20204;-74
2021/05/21 07:04:32;;;;;;;6.07;0.70;;;15.30;99.90;;;;;;5025422;28;20445;-74
2021/05/21 07:06:57;;;;;;;3.50;1.07;;;15.30;99.90;;;;;;5029910;28;20725;-74
2021/05/21 07:09:23;;;;;;;0.80;0.77;;;15.40;99.90;;;;;;5028362;28;20440;-74
2021/05/21 07:11:49;;;;;;;1.67;0.63;;;15.40;99.90;;;;;;5030274;28;20182;-74
2021/05/21 07:14:14;;;;;;;1.90;0.90;;;15.40;99.90;;;;;;5026660;28;20194;-75
2021/05/21 07:16:41;;;;;;;0.77;0.60;;;15.40;99.90;;;;;;5028849;28;20285;-75
2021/05/21 07:19:07;;;;;;;1.07;0.70;;;15.40;99.90;;;;;;5026547;28;20197;-74
2021/05/21 07:21:33;;;;;;;0.67;0.60;;;15.40;99.90;;;;;;5028629;28;20432;-74
2021/05/21 07:23:58;;;;;;;4.33;0.80;;;15.40;99.90;;;;;;5028754;28;20471;-74
2021/05/21 07:26:25;;;;;;;1.27;0.80;;;15.50;99.90;;;;;;5028205;28;20210;-74
2021/05/21 07:28:53;;;;;;;0.60;0.60;;;15.40;99.90;;;;;;5031089;28;20628;-74
2021/05/21 07:31:18;;;;;;;1.90;0.77;;;15.40;99.90;;;;;;5028792;28;20437;-74
2021/05/21 07:33:44;;;;;;;5.97;0.80;;;15.40;99.90;;;;;;5012565;28;20435;-74
2021/05/21 07:36:09;;;;;;;1.27;0.80;;;15.40;99.90;;;;;;5026350;28;20227;-75
2021/05/21 07:38:36;;;;;;;0.90;0.90;;;15.30;99.90;;;;;;5011482;28;20178;-74
2021/05/21 07:41:02;;;;;;;1.23;0.80;;;15.30;99.90;;;;;;5027819;28;20174;-74
2021/05/21 07:43:28;;;;;;;1.83;0.70;;;15.40;99.90;;;;;;5028534;28;20478;-74
2021/05/21 07:45:54;;;;;;;3.77;0.90;;;15.40;99.90;;;;;;5028779;28;20424;-74
2021/05/21 07:48:20;;;;;;;1.80;0.70;;;15.40;99.90;;;;;;5028534;28;20933;-74
2021/05/21 07:50:47;;;;;;;0.67;0.67;;;15.40;99.90;;;;;;5014438;28;20214;-74
2021/05/21 07:53:12;;;;;;;1.40;0.80;;;15.30;99.90;;;;;;5015278;28;20277;-74
2021/05/21 07:55:38;;;;;;;0.83;0.60;;;15.30;99.90;;;;;;5016438;28;20535;-74
2021/05/21 07:58:06;;;;;;;0.80;0.63;;;15.30;99.90;;;;;;5029518;28;20277;-74
2021/05/21 08:00:31;;;;;;;1.47;0.70;;;15.30;99.90;;;;;;5034034;28;21203;-74
2021/05/21 08:02:57;;;;;;;2.53;0.83;;;15.30;99.90;;;;;;5031531;28;20468;-74
2021/05/21 08:05:23;;;;;;;1.03;0.70;;;15.30;99.90;;;;;;5015208;28;20193;-74
2021/05/21 08:07:49;;;;;;;1.53;0.90;;;15.30;99.90;;;;;;5032090;28;20185;-74
2021/05/21 08:10:15;;;;;;;0.70;0.70;;;15.40;99.90;;;;;;5015111;28;20436;-74
2021/05/21 08:12:40;;;;;;;1.60;0.70;;;15.40;99.90;;;;;;5016034;28;20185;-74
2021/05/21 08:15:06;;;;;;;0.70;0.70;;;15.40;99.90;;;;;;5031350;28;20440;-74
2021/05/21 08:17:34;;;;;;;0.60;0.60;;;15.40;99.90;;;;;;5033773;28;20210;-75
2021/05/21 08:20:01;;;;;;;1.43;0.67;;;15.40;99.90;;;;;;5026836;28;21527;-74
2021/05/21 08:22:28;;;;;;;6.17;0.70;;;15.40;99.90;;;;;;5033759;28;20463;-74
2021/05/21 08:24:53;;;;;;;1.23;0.80;;;15.40;99.90;;;;;;5011636;28;20961;-74
2021/05/21 08:27:19;;;;;;;0.73;0.73;;;15.50;99.90;;;;;;5025154;28;20448;-74
2021/05/21 08:29:44;;;;;;;1.63;0.70;;;15.50;99.90;;;;;;5031675;28;20686;-75
2021/05/21 08:32:10;;;;;;;3.03;0.77;;;15.50;99.90;;;;;;5029099;28;20182;-74
2021/05/21 08:34:35;;;;;;;1.23;1.03;;;15.50;99.90;;;;;;5031161;28;20185;-74
2021/05/21 08:37:01;;;;;;;2.80;0.80;;;15.60;99.90;;;;;;5030729;28;20302;-75
2021/05/21 08:39:27;;;;;;;1.57;0.70;;;15.50;99.90;;;;;;5033582;28;20247;-74
2021/05/21 08:41:54;;;;;;;3.70;0.80;;;15.60;99.90;;;;;;5028730;28;20167;-74
2021/05/21 08:44:21;;;;;;;2.97;0.97;;;15.60;99.90;;;;;;5033003;28;20486;-75
2021/05/21 08:46:46;;;;;;;1.60;0.60;;;15.60;99.90;;;;;;5031270;28;20823;-74
2021/05/21 08:49:13;;;;;;;2.37;0.77;;;15.60;99.90;;;;;;5031734;28;20444;-74
2021/05/21 08:51:39;;;;;;;1.67;1.23;;;15.60;99.90;;;;;;5030475;28;20229;-74
2021/05/21 08:54:06;;;;;;;0.83;0.70;;;15.70;99.90;;;;;;5030315;28;20441;-74
2021/05/21 08:56:35;;;;;;;1.00;0.87;;;15.70;99.90;;;;;;5032826;28;20217;-74
2021/05/21 08:59:01;;;;;;;1.77;0.80;;;15.70;99.90;;;;;;5030560;28;20447;-74
2021/05/21 09:01:27;;;;;;;1.97;0.60;;;15.70;99.90;;;;;;5032270;28;20417;-75
2021/05/21 09:04:01;;;;;;;2.93;0.70;;;15.70;99.90;;;;;;5028236;28;20534;-74
2021/05/21 09:06:28;;;;;;;3.07;0.90;;;15.60;99.90;;;;;;5024877;28;20198;-74
2021/05/21 09:08:56;;;;;;;4.87;0.70;;;15.60;99.90;;;;;;5014714;28;20470;-75
2021/05/21 09:11:34;;;;;;;2.93;0.90;;;15.70;99.90;;;;;;5033087;28;20404;-74
2021/05/21 09:14:07;;;;;;;1.17;0.80;;;15.70;99.90;;;;;;5030589;28;20440;-75
2021/05/21 09:16:35;;;;;;;6.67;0.60;;;15.60;99.90;;;;;;5029690;28;20456;-75
2021/05/21 09:19:13;;;;;;;1.10;0.67;;;15.60;99.90;;;;;;5029596;28;20439;-75
2021/05/21 09:21:55;;;;;;;1.97;0.80;;;15.70;99.90;;;;;;5030669;28;20431;-74
2021/05/21 09:24:27;;;;;;;1.73;0.97;;;15.70;99.90;;;;;;5012856;28;20527;-75
2021/05/21 09:26:55;;;;;;;2.10;0.60;;;15.70;99.90;;;;;;5030194;28;20467;-75
2021/05/21 09:29:42;;;;;;;1.97;0.60;;;15.70;99.90;;;;;;5031065;28;20492;-75
2021/05/21 09:32:25;;;;;;;1.37;0.70;;;15.70;99.90;;;;;;5022331;28;20448;-74
2021/05/21 09:35:12;;;;;;;0.70;0.57;;;15.70;99.90;;;;;;5011240;28;20444;-74
2021/05/21 09:37:49;;;;;;;2.30;0.57;;;15.80;99.90;;;;;;5029570;28;20820;-74
2021/05/21 09:40:20;;;;;;;7.57;0.70;;;15.80;99.90;;;;;;5029739;28;20523;-75
2021/05/21 09:42:51;;;;;;;2.63;1.47;;;15.90;99.90;;;;;;5028287;28;20970;-74
2021/05/21 09:45:22;;;;;;;0.80;0.60;;;15.90;99.90;;;;;;5031942;28;20503;-75
2021/05/21 09:47:58;;;;;;;2.00;0.63;;;15.90;99.90;;;;;;5028300;28;20875;-74
2021/05/21 09:50:34;;;;;;;0.70;0.60;;;15.80;99.90;;;;;;5013445;28;20439;-74
2021/05/21 09:53:02;;;;;;;0.60;0.60;;;15.80;99.90;;;;;;5029441;28;21026;-74
2021/05/21 09:55:32;;;;;;;3.27;1.40;;;15.80;99.90;;;;;;5031821;28;20437;-74
2021/05/21 09:57:58;;;;;;;2.50;0.80;;;15.80;99.90;;;;;;5026850;28;20452;-74
2021/05/21 10:00:24;;;;;;;4.37;0.97;;;15.70;99.90;;;;;;5031939;28;20558;-74
2021/05/21 10:02:49;;;;;;;4.27;0.60;;;15.70;99.90;;;;;;5029464;28;20206;-75
2021/05/21 10:05:15;;;;;;;6.60;1.43;;;15.70;99.90;;;;;;5029553;28;20189;-75
2021/05/21 10:07:42;;;;;;;3.30;1.10;;;15.70;99.90;;;;;;5029757;28;20621;-75
2021/05/21 10:10:08;;;;;;;1.70;1.17;;;15.70;99.90;;;;;;5027344;28;20228;-74
2021/05/21 10:12:34;;;;;;;3.10;1.10;;;15.60;99.90;;;;;;5030972;28;20965;-75
2021/05/21 10:15:00;;;;;;;4.60;0.93;;;15.50;99.90;;;;;;5029285;28;20438;-74
2021/05/21 10:17:28;;;;;;;1.30;1.30;;;15.50;99.90;;;;;;5031098;28;20498;-73
2021/05/21 10:19:55;;;;;;;1.70;1.60;;;15.50;99.90;;;;;;5024966;28;20194;-75
2021/05/21 10:22:25;;;;;;;2.07;1.90;;;15.50;99.90;;;;;;5013734;28;20782;-74
2021/05/21 10:24:54;;;;;;;2.27;1.40;;;15.50;99.90;;;;;;5029264;28;20839;-75
2021/05/21 10:27:24;;;;;;;0.97;0.80;;;15.50;99.90;;;;;;5031204;28;20938;-75
2021/05/21 10:29:59;;;;;;;2.30;1.03;;;15.40;99.90;;;;;;5029490;28;20460;-74
2021/05/21 10:32:30;;;;;;;11.70;0.83;;;15.50;99.90;;;;;;5028714;28;20447;-75
2021/05/21 10:34:57;;;;;;;1.83;0.80;;;15.50;99.90;;;;;;5028908;28;20926;-75
2021/05/21 10:37:32;;;;;;;0.70;0.70;;;15.60;99.90;;;;;;5031471;28;20496;-75
2021/05/21 10:40:07;;;;;;;3.43;0.60;;;15.60;99.90;;;;;;5031238;28;20433;-75
2021/05/21 10:42:38;;;;;;;2.50;0.60;;;15.60;99.90;;;;;;5025594;28;20794;-74
2021/05/21 10:45:24;;;;;;;2.33;0.60;;;15.60;99.90;;;;;;5030742;28;20903;-74
2021/05/21 10:48:04;;;;;;;1.70;0.63;;;15.60;99.90;;;;;;5028597;28;20816;-74
2021/05/21 10:50:39;;;;;;;2.20;1.00;;;15.70;99.90;;;;;;5026197;28;20952;-75
2021/05/21 10:53:06;;;;;;;1.27;0.70;;;15.90;99.90;;;;;;5030156;28;20452;-74
2021/05/21 10:55:40;;;;;;;1.40;0.80;;;15.80;99.90;;;;;;5030930;28;20660;-74
2021/05/21 10:58:06;;;;;;;0.70;0.70;;;15.90;99.90;;;;;;5029934;28;20826;-74
2021/05/21 11:00:31;;;;;;;1.90;0.90;;;16.00;99.90;;;;;;5031213;28;20508;-75
2021/05/21 11:02:57;;;;;;;0.60;0.60;;;16.10;99.90;;;;;;5027140;28;20255;-74
2021/05/21 11:05:32;;;;;;;2.87;0.77;;;16.20;99.90;;;;;;5009662;28;20274;-74
2021/05/21 11:08:06;;;;;;;1.53;0.77;;;16.40;99.90;;;;;;5028799;28;20699;-74
2021/05/21 11:10:32;;;;;;;2.33;1.07;;;16.50;99.90;;;;;;5027520;28;20527;-74
2021/05/21 11:13:05;;;;;;;1.97;0.70;;;16.50;99.90;;;;;;5013713;28;20523;-74
2021/05/21 11:15:36;;;;;;;0.70;0.70;;;16.60;99.90;;;;;;5012017;28;20670;-75
2021/05/21 11:18:17;;;;;;;1.00;0.70;;;16.40;99.90;;;;;;5030181;28;20444;-75
2021/05/21 11:20:51;;;;;;;0.67;0.57;;;16.50;99.90;;;;;;5025016;28;20835;-75
2021/05/21 11:23:17;;;;;;;1.00;0.50;;;16.40;99.90;;;;;;5012766;28;21063;-75
2021/05/21 11:26:04;;;;;;;1.17;0.60;;;16.40;99.90;;;;;;5028232;28;20470;-75
2021/05/21 11:28:33;;;;;;;1.30;0.50;;;16.50;99.90;;;;;;5034012;28;20635;-75
2021/05/21 11:30:59;;;;;;;1.03;0.63;;;16.50;99.90;;;;;;5030540;28;20515;-74
2021/05/21 11:33:24;;;;;;;1.23;0.70;;;16.60;99.90;;;;;;5033937;28;20515;-74
2021/05/21 11:35:54;;;;;;;0.90;0.60;;;16.80;99.90;;;;;;5030091;28;20737;-75
2021/05/21 11:38:26;;;;;;;1.00;0.43;;;17.00;99.90;;;;;;5015621;28;20182;-75
2021/05/21 11:40:53;;;;;;;1.90;0.80;;;17.20;99.90;;;;;;5031684;28;20463;-75
2021/05/21 11:43:27;;;;;;;1.20;0.90;;;17.50;99.90;;;;;;5031662;28;20475;-75
2021/05/21 11:45:55;;;;;;;0.70;0.60;;;17.70;99.90;;;;;;5031859;28;20483;-75
2021/05/21 11:48:37;;;;;;;2.90;0.60;;;17.60;99.90;;;;;;5014250;28;20433;-74
2021/05/21 11:51:09;;;;;;;0.60;0.50;;;17.70;99.90;;;;;;5005779;28;20440;-74
2021/05/21 11:53:52;;;;;;;0.63;0.63;;;17.70;99.90;;;;;;5014414;28;20444;-74
2021/05/21 11:56:40;;;;;;;1.27;0.50;;;17.60;99.90;;;;;;5011084;28;20523;-75
2021/05/21 11:59:08;;;;;;;0.80;0.63;;;17.50;99.90;;;;;;5012661;28;20949;-73
2021/05/21 12:01:36;;;;;;;0.80;0.60;;;17.20;99.90;;;;;;5013381;28;20511;-73
2021/05/21 12:04:04;;;;;;;0.63;0.60;;;17.20;99.90;;;;;;5029828;28;20522;-75
2021/05/21 12:06:30;;;;;;;0.50;0.50;;;17.10;99.90;;;;;;5001037;28;20496;-75
2021/05/21 12:08:56;;;;;;;0.80;0.80;;;17.00;99.90;;;;;;5027725;28;20868;-74
2021/05/21 12:11:24;;;;;;;0.80;0.50;;;17.00;99.90;;;;;;5032087;28;20775;-74
2021/05/21 12:13:49;;;;;;;2.30;0.70;;;17.00;99.90;;;;;;5014476;28;20643;-75
2021/05/21 12:16:20;;;;;;;0.70;0.63;;;17.10;99.90;;;;;;5024724;28;20540;-75
2021/05/21 12:18:49;;;;;;;0.60;0.60;;;17.30;99.90;;;;;;5023073;28;20243;-74
2021/05/21 12:21:29;;;;;;;1.00;0.50;;;17.10;99.90;;;;;;5026942;28;20440;-75
2021/05/21 12:23:56;;;;;;;6.30;0.70;;;17.10;99.90;;;;;;5032333;28;20460;-75
2021/05/21 12:26:24;;;;;;;2.20;0.60;;;17.10;99.90;;;;;;5014891;28;20456;-74
2021/05/21 12:28:52;;;;;;;1.23;0.70;;;17.10;99.90;;;;;;5033564;28;20807;-75
2021/05/21 12:31:26;;;;;;;0.60;0.60;;;17.10;99.90;;;;;;5030919;28;20458;-75
2021/05/21 12:33:52;;;;;;;0.73;0.63;;;17.00;99.90;;;;;;5030325;28;20432;-75
2021/05/21 12:36:17;;;;;;;0.90;0.60;;;16.90;99.90;;;;;;5029059;28;20547;-75
2021/05/21 12:38:48;;;;;;;0.67;0.60;;;17.10;99.90;;;;;;5015519;28;20185;-75
2021/05/21 12:41:13;;;;;;;1.40;0.87;;;17.00;99.90;;;;;;5030430;28;20186;-74
2021/05/21 12:43:39;;;;;;;2.23;1.30;;;17.20;99.90;;;;;;5011862;28;20483;-74
2021/05/21 12:46:07;;;;;;;1.70;1.50;;;17.30;99.90;;;;;;5033019;28;20682;-72
2021/05/21 12:48:42;;;;;;;5.07;1.43;;;17.40;99.90;;;;;;5030708;28;20182;-75